createdAt,value
2023-02-11T00:01:18.448Z,99065.28
2023-02-11T00:03:45.152Z,99057.31
2023-02-11T00:06:13.829Z,99050.88
2023-02-11T00:08:47.777Z,99047.38
2023-02-11T00:11:14.391Z,99043.00
2023-02-11T00:13:49.130Z,99039.38
2023-02-11T00:16:15.675Z,99039.13
2023-02-11T00:18:42.183Z,99030.44
2023-02-11T00:21:08.641Z,99032.09
2023-02-11T00:23:35.153Z,99021.81
2023-02-11T00:26:01.593Z,99022.78
2023-02-11T00:28:28.291Z,99030.78
2023-02-11T00:30:54.966Z,99029.94
2023-02-11T00:33:21.503Z,99031.03
2023-02-11T00:35:48.179Z,99034.31
2023-02-11T00:38:14.840Z,99021.81
2023-02-11T00:40:41.326Z,99025.34
2023-02-11T00:43:07.843Z,99021.81
2023-02-11T00:45:34.356Z,99016.88
2023-02-11T00:48:00.783Z,99017.97
2023-02-11T00:50:27.249Z,99015.56
2023-02-11T00:52:53.706Z,99027.53
2023-02-11T00:55:20.390Z,99023.28
2023-02-11T00:57:46.917Z,99016.31
2023-02-11T01:00:18.906Z,99017.38
2023-02-11T01:02:45.453Z,99019.19
2023-02-11T01:05:12.717Z,99010.38
2023-02-11T01:07:39.270Z,99009.66
2023-02-11T01:10:05.777Z,99022.47
2023-02-11T01:12:34.537Z,99011.94
2023-02-11T01:20:25.804Z,99014.72
2023-02-11T01:25:32.505Z,99004.22
2023-02-11T01:30:49.198Z,99002.88
2023-02-11T01:33:17.093Z,99000.22
2023-02-11T01:35:43.554Z,99002.75
2023-02-11T01:38:09.932Z,99002.25
2023-02-11T01:40:39.919Z,98997.69
2023-02-11T01:43:06.501Z,98995.16
2023-02-11T01:45:40.617Z,98988.25
2023-02-11T01:48:13.437Z,98986.53
2023-02-11T01:50:39.931Z,98991.97
2023-02-11T01:53:06.417Z,99002.38
2023-02-11T01:55:32.932Z,99003.13
2023-02-11T01:57:59.489Z,98998.88
2023-02-11T02:00:26.389Z,98995.47
2023-02-11T02:02:52.930Z,98997.56
2023-02-11T02:05:19.452Z,99000.22
2023-02-11T02:07:45.905Z,98995.59
2023-02-11T02:10:12.442Z,98999.59
2023-02-11T02:12:38.962Z,98991.75
2023-02-11T02:15:05.750Z,98989.06
2023-02-11T02:17:36.403Z,98977.72
2023-02-11T02:20:12.010Z,98980.38
2023-02-11T02:22:38.537Z,98974.44
2023-02-11T02:25:05.077Z,98983.16
2023-02-11T02:27:31.636Z,98977.72
2023-02-11T02:29:58.121Z,98980.84
2023-02-11T02:32:24.579Z,98985.47
2023-02-11T02:34:51.040Z,98974.81
2023-02-11T02:37:17.572Z,98970.59
2023-02-11T02:39:44.056Z,98967.91
2023-02-11T02:42:10.493Z,98969.63
2023-02-11T02:44:37.192Z,98961.53
2023-02-11T02:47:23.627Z,98961.03
2023-02-11T02:49:50.036Z,98961.28
2023-02-11T02:52:16.404Z,98951.97
2023-02-11T02:54:45.205Z,98951.84
2023-02-11T02:57:14.824Z,98959.69
2023-02-11T02:59:41.379Z,98956.91
2023-02-11T03:02:07.884Z,98955.47
2023-02-11T03:04:34.354Z,98958.97
2023-02-11T03:07:00.741Z,98958.13
2023-02-11T03:09:27.128Z,98958.25
2023-02-11T03:12:05.178Z,98954.63
2023-02-11T03:14:31.696Z,98945.06
2023-02-11T03:17:00.656Z,98941.56
2023-02-11T03:19:27.170Z,98937.22
2023-02-11T03:21:53.598Z,98927.66
2023-02-11T03:24:20.051Z,98922.47
2023-02-11T03:26:46.394Z,98920.91
2023-02-11T03:29:14.185Z,98928.88
2023-02-11T03:31:40.772Z,98932.75
2023-02-11T03:34:07.402Z,98934.41
2023-02-11T03:36:33.819Z,98943.28
2023-02-11T03:39:00.313Z,98942.41
2023-02-11T03:41:26.713Z,98938.78
2023-02-11T03:43:57.186Z,98932.13
2023-02-11T03:46:23.806Z,98922.69
2023-02-11T03:48:50.524Z,98918.72
2023-02-11T03:51:16.979Z,98921.25
2023-02-11T03:53:43.308Z,98905.19
2023-02-11T03:56:09.666Z,98902.31
2023-02-11T03:58:36.026Z,98910.28
2023-02-11T04:01:02.384Z,98903.13
2023-02-11T04:03:28.857Z,98910.03
2023-02-11T04:05:55.251Z,98910.28
2023-02-11T04:08:21.593Z,98922.00
2023-02-11T04:10:47.913Z,98920.16
2023-02-11T04:13:14.437Z,98919.22
2023-02-11T04:15:40.841Z,98920.03
2023-02-11T04:18:07.166Z,98922.84
2023-02-11T04:20:33.615Z,98913.66
2023-02-11T04:22:59.961Z,98913.78
2023-02-11T04:25:26.350Z,98907.13
2023-02-11T04:27:52.687Z,98902.06
2023-02-11T04:30:19.089Z,98911.00
2023-02-11T04:32:45.412Z,98912.56
2023-02-11T04:35:11.739Z,98905.66
2023-02-11T04:37:38.080Z,98900.97
2023-02-11T04:40:04.586Z,98906.41
2023-02-11T04:42:30.931Z,98902.06
2023-02-11T04:44:57.256Z,98904.84
2023-02-11T04:47:23.589Z,98911.72
2023-02-11T04:49:49.960Z,98912.69
2023-02-11T04:52:16.312Z,98915.34
2023-02-11T04:54:42.725Z,98920.53
2023-02-11T04:57:09.091Z,98912.31
2023-02-11T04:59:35.443Z,98907.97
2023-02-11T05:02:03.341Z,98912.69
2023-02-11T05:04:32.300Z,98909.28
2023-02-11T05:09:39.026Z,98901.22
2023-02-11T05:12:05.343Z,98906.28
2023-02-11T05:14:31.675Z,98900.09
2023-02-11T05:16:58.147Z,98895.91
2023-02-11T05:19:24.511Z,98889.84
2023-02-11T05:22:02.229Z,98892.25
2023-02-11T05:24:29.598Z,98893.13
2023-02-11T05:26:55.922Z,98902.53
2023-02-11T05:29:22.248Z,98897.22
2023-02-11T05:31:48.762Z,98904.22
2023-02-11T05:34:15.087Z,98904.59
2023-02-11T05:36:41.392Z,98894.78
2023-02-11T05:39:07.718Z,98895.78
2023-02-11T05:41:46.201Z,98896.47
2023-02-11T05:44:13.156Z,98886.59
2023-02-11T05:46:39.668Z,98884.91
2023-02-11T05:49:06.019Z,98883.06
2023-02-11T05:51:32.496Z,98880.53
2023-02-11T05:54:01.640Z,98873.31
2023-02-11T05:56:28.095Z,98868.81
2023-02-11T05:58:54.587Z,98867.00
2023-02-11T06:01:21.062Z,98871.34
2023-02-11T06:03:47.674Z,98875.72
2023-02-11T06:06:14.212Z,98876.69
2023-02-11T06:08:40.734Z,98881.16
2023-02-11T06:11:07.260Z,98876.56
2023-02-11T06:13:33.663Z,98879.34
2023-02-11T06:16:00.210Z,98880.16
2023-02-11T06:18:26.760Z,98879.22
2023-02-11T06:20:53.114Z,98880.91
2023-02-11T06:23:19.543Z,98888.00
2023-02-11T06:26:03.091Z,98904.97
2023-02-11T06:28:29.537Z,98903.88
2023-02-11T06:30:55.998Z,98905.53
2023-02-11T06:33:22.454Z,98899.16
2023-02-11T06:35:50.081Z,98900.72
2023-02-11T06:38:16.758Z,98905.78
2023-02-11T06:40:43.271Z,98903.97
2023-02-11T06:43:09.789Z,98908.44
2023-02-11T06:45:36.436Z,98913.78
2023-02-11T06:48:02.997Z,98914.72
2023-02-11T06:50:29.483Z,98910.50
2023-02-11T06:52:55.862Z,98897.44
2023-02-11T06:55:22.236Z,98901.09
2023-02-11T06:57:50.822Z,98912.81
2023-02-11T07:00:17.315Z,98909.41
2023-02-11T07:02:43.700Z,98907.63
2023-02-11T07:05:10.099Z,98917.16
2023-02-11T07:07:36.603Z,98916.91
2023-02-11T07:10:03.444Z,98916.91
2023-02-11T07:12:29.834Z,98912.44
2023-02-11T07:14:56.361Z,98920.41
2023-02-11T07:17:22.835Z,98923.91
2023-02-11T07:19:49.292Z,98932.50
2023-02-11T07:22:21.006Z,98930.56
2023-02-11T07:24:49.762Z,98934.22
2023-02-11T07:27:16.252Z,98939.53
2023-02-11T07:29:45.147Z,98948.47
2023-02-11T07:32:11.516Z,98944.84
2023-02-11T07:34:38.995Z,98954.59
2023-02-11T07:37:05.583Z,98966.13
2023-02-11T07:39:32.102Z,98964.16
2023-02-11T07:41:58.598Z,98972.66
2023-02-11T07:44:25.107Z,98969.84
2023-02-11T07:46:51.654Z,98977.72
2023-02-11T07:49:18.094Z,98971.66
2023-02-11T07:51:44.616Z,98973.97
2023-02-11T07:54:11.100Z,98976.50
2023-02-11T07:56:37.610Z,98974.69
2023-02-11T07:59:04.085Z,98973.84
2023-02-11T08:01:30.589Z,98969.34
2023-02-11T08:04:01.576Z,98967.78
2023-02-11T08:06:28.389Z,98967.66
2023-02-11T08:08:54.998Z,98962.25
2023-02-11T08:11:21.534Z,98959.94
2023-02-11T08:13:48.148Z,98967.78
2023-02-11T08:16:14.743Z,98965.13
2023-02-11T08:18:41.314Z,98966.22
2023-02-11T08:21:07.859Z,98968.91
2023-02-11T08:23:34.336Z,98963.78
2023-02-11T08:26:00.864Z,98972.63
2023-02-11T08:28:27.490Z,98973.34
2023-02-11T08:30:54.063Z,98977.34
2023-02-11T08:33:20.502Z,98978.22
2023-02-11T08:35:47.028Z,98983.41
2023-02-11T08:38:13.519Z,98980.75
2023-02-11T08:40:39.991Z,98987.59
2023-02-11T08:43:08.187Z,98994.50
2023-02-11T08:45:35.507Z,99000.69
2023-02-11T08:50:52.624Z,98994.25
2023-02-11T08:58:40.731Z,99013.75
2023-02-11T09:01:07.258Z,99011.09
2023-02-11T09:03:33.766Z,99018.84
2023-02-11T09:06:00.289Z,99015.31
2023-02-11T09:08:27.764Z,99019.91
2023-02-11T09:10:54.283Z,99015.66
2023-02-11T09:13:26.715Z,99019.19
2023-02-11T09:15:53.242Z,99021.00
2023-02-11T09:21:03.837Z,99014.09
2023-02-11T09:23:30.401Z,99022.94
2023-02-11T09:25:56.950Z,99018.34
2023-02-11T09:28:31.827Z,99012.88
2023-02-11T09:30:58.411Z,99016.16
2023-02-11T09:33:24.991Z,99023.91
2023-02-11T09:35:51.489Z,99028.84
2023-02-11T09:38:18.368Z,99029.34
2023-02-11T09:40:45.273Z,99037.09
2023-02-11T09:43:13.385Z,99036.72
2023-02-11T09:45:39.864Z,99037.22
2023-02-11T09:48:06.982Z,99035.88
2023-02-11T09:50:40.917Z,99033.22
2023-02-11T09:53:07.387Z,99037.59
2023-02-11T09:55:33.864Z,99039.13
2023-02-11T09:58:00.358Z,99047.38
2023-02-11T10:00:26.757Z,99052.56
2023-02-11T10:02:53.443Z,99057.19
2023-02-11T10:05:19.856Z,99060.19
2023-02-11T10:07:46.336Z,99053.91
2023-02-11T10:10:12.787Z,99056.44
2023-02-11T10:12:39.247Z,99052.81
2023-02-11T10:15:05.741Z,99061.50
2023-02-11T10:17:32.250Z,99057.06
2023-02-11T10:19:58.707Z,99063.84
2023-02-11T10:22:25.293Z,99056.31
2023-02-11T10:24:59.170Z,99055.47
2023-02-11T10:27:25.560Z,99049.53
2023-02-11T10:29:51.964Z,99049.41
2023-02-11T10:32:18.462Z,99050.41
2023-02-11T10:34:44.852Z,99038.53
2023-02-11T10:37:11.318Z,99042.63
2023-02-11T10:39:37.715Z,99046.75
2023-02-11T10:42:04.457Z,99044.56
2023-02-11T10:44:33.119Z,99039.13
2023-02-11T10:47:00.867Z,99031.25
2023-02-11T10:49:27.403Z,99028.69
2023-02-11T10:51:53.837Z,99033.91
2023-02-11T10:54:20.480Z,99023.13
2023-02-11T10:56:46.978Z,99019.25
2023-02-11T10:59:24.066Z,99015.50
2023-02-11T11:01:50.655Z,99001.06
2023-02-11T11:04:18.450Z,98994.63
2023-02-11T11:06:44.959Z,98993.66
2023-02-11T11:09:12.306Z,98999.00
2023-02-11T11:11:38.790Z,98987.38
2023-02-11T11:14:05.300Z,98987.13
2023-02-11T11:16:31.760Z,98986.72
2023-02-11T11:18:58.450Z,98979.13
2023-02-11T11:21:24.900Z,98978.50
2023-02-11T11:26:31.628Z,98970.66
2023-02-11T11:28:58.063Z,98974.44
2023-02-11T11:31:27.338Z,98966.63
2023-02-11T11:33:54.379Z,98963.50
2023-02-11T11:36:20.883Z,98963.94
2023-02-11T11:38:56.473Z,98969.00
2023-02-11T11:41:22.873Z,98963.94
2023-02-11T11:43:49.434Z,98966.47
2023-02-11T11:46:15.979Z,98954.38
2023-02-11T11:48:42.456Z,98957.38
2023-02-11T11:51:08.962Z,98947.94
2023-02-11T11:53:35.596Z,98948.41
2023-02-11T11:56:02.084Z,98941.47
2023-02-11T11:58:28.529Z,98943.28
2023-02-11T12:00:55.038Z,98933.53
2023-02-11T12:03:21.789Z,98935.00
2023-02-11T12:05:49.003Z,98935.00
2023-02-11T12:08:18.023Z,98933.03
2023-02-11T12:10:56.778Z,98927.44
2023-02-11T12:13:23.374Z,98929.28
2023-02-11T12:15:49.892Z,98929.81
2023-02-11T12:18:16.427Z,98924.81
2023-02-11T12:20:42.946Z,98935.47
2023-02-11T12:23:09.433Z,98926.03
2023-02-11T12:25:35.846Z,98923.50
2023-02-11T12:28:02.431Z,98920.34
2023-02-11T12:30:29.028Z,98917.94
2023-02-11T12:32:55.539Z,98925.06
2023-02-11T12:35:21.975Z,98916.34
2023-02-11T12:37:48.361Z,98917.06
2023-02-11T12:40:14.736Z,98915.13
2023-02-11T12:42:42.155Z,98915.69
2023-02-11T12:45:08.631Z,98905.78
2023-02-11T12:47:36.232Z,98901.44
2023-02-11T12:50:08.087Z,98902.28
2023-02-11T12:52:34.818Z,98898.91
2023-02-11T12:55:01.230Z,98900.03
2023-02-11T12:57:27.949Z,98894.16
2023-02-11T12:59:54.525Z,98891.06
2023-02-11T13:02:32.292Z,98893.19
2023-02-11T13:04:59.233Z,98892.91
2023-02-11T13:07:25.750Z,98886.91
2023-02-11T13:09:59.569Z,98882.44
2023-02-11T13:12:26.135Z,98885.09
2023-02-11T13:14:52.701Z,98877.59
2023-02-11T13:17:19.286Z,98873.56
2023-02-11T13:19:55.183Z,98863.16
2023-02-11T13:22:21.603Z,98862.91
2023-02-11T13:25:01.242Z,98862.19
2023-02-11T13:27:27.790Z,98851.66
2023-02-11T13:29:54.360Z,98856.59
2023-02-11T13:32:21.160Z,98843.03
2023-02-11T13:34:47.621Z,98844.44
2023-02-11T13:37:14.101Z,98845.88
2023-02-11T13:39:40.582Z,98842.25
2023-02-11T13:42:07.078Z,98835.38
2023-02-11T13:44:33.612Z,98830.19
2023-02-11T13:47:00.130Z,98833.69
2023-02-11T13:49:26.649Z,98826.91
2023-02-11T13:51:53.151Z,98838.28
2023-02-11T13:54:20.678Z,98835.38
2023-02-11T13:56:47.310Z,98832.16
2023-02-11T13:59:13.836Z,98824.16
2023-02-11T14:01:40.343Z,98820.50
2023-02-11T14:04:06.847Z,98825.28
2023-02-11T14:06:33.346Z,98824.72
2023-02-11T14:08:59.849Z,98822.78
2023-02-11T14:11:26.352Z,98819.66
2023-02-11T14:13:54.101Z,98810.69
2023-02-11T14:16:36.395Z,98807.75
2023-02-11T14:19:03.695Z,98810.13
2023-02-11T14:21:30.136Z,98804.13
2023-02-11T14:23:56.792Z,98806.91
2023-02-11T14:26:23.227Z,98802.84
2023-02-11T14:28:49.700Z,98802.31
2023-02-11T14:31:16.231Z,98798.38
2023-02-11T14:33:42.823Z,98791.75
2023-02-11T14:36:09.324Z,98795.28
2023-02-11T14:38:36.142Z,98793.59
2023-02-11T14:41:02.669Z,98795.97
2023-02-11T14:43:29.701Z,98794.28
2023-02-11T14:45:56.376Z,98789.75
2023-02-11T14:48:23.213Z,98791.88
2023-02-11T14:50:50.893Z,98786.78
2023-02-11T14:53:17.608Z,98793.25
2023-02-11T14:55:44.128Z,98784.97
2023-02-11T14:58:10.695Z,98789.56
2023-02-11T15:00:37.179Z,98787.03
2023-02-11T15:03:03.796Z,98781.41
2023-02-11T15:05:30.315Z,98792.22
2023-02-11T15:07:58.089Z,98788.00
2023-02-11T15:10:24.537Z,98781.22
2023-02-11T15:12:51.078Z,98783.47
2023-02-11T15:15:17.604Z,98776.16
2023-02-11T15:17:44.143Z,98772.47
2023-02-11T15:20:16.429Z,98767.69
2023-02-11T15:22:42.945Z,98757.28
2023-02-11T15:25:09.483Z,98760.78
2023-02-11T15:27:35.916Z,98766.59
2023-02-11T15:30:02.578Z,98776.03
2023-02-11T15:32:31.276Z,98777.75
2023-02-11T15:34:57.934Z,98769.16
2023-02-11T15:37:24.521Z,98774.81
2023-02-11T15:39:51.048Z,98776.50
2023-02-11T15:42:17.631Z,98773.41
2023-02-11T15:44:44.138Z,98776.69
2023-02-11T15:47:10.659Z,98783.56
2023-02-11T15:49:37.261Z,98778.22
2023-02-11T15:52:03.675Z,98775.03
2023-02-11T15:54:31.755Z,98775.84
2023-02-11T15:56:58.302Z,98783.56
2023-02-11T15:59:24.767Z,98776.97
2023-02-11T16:01:51.305Z,98782.16
2023-02-11T16:04:17.880Z,98776.69
2023-02-11T16:06:45.619Z,98775.28
2023-02-11T16:09:12.002Z,98778.66
2023-02-11T16:11:38.408Z,98781.03
2023-02-11T16:14:55.764Z,98786.09
2023-02-11T16:16:56.189Z,98780.06
2023-02-11T16:19:25.323Z,98780.59
2023-02-11T16:21:52.235Z,98784.25
2023-02-11T16:24:18.867Z,98774.28
2023-02-11T16:26:49.690Z,98772.72
2023-02-11T16:29:20.244Z,98776.38
2023-02-11T16:32:09.361Z,98778.06
2023-02-11T16:34:33.931Z,98775.56
2023-02-11T16:37:01.423Z,98768.38
2023-02-11T16:39:28.098Z,98774.56
2023-02-11T16:42:02.244Z,98775.56
2023-02-11T16:44:28.775Z,98772.88
2023-02-11T16:46:55.609Z,98783.13
2023-02-11T16:49:22.180Z,98784.84
2023-02-11T16:51:48.740Z,98795.66
2023-02-11T16:54:15.132Z,98793.97
2023-02-11T16:56:42.596Z,98804.25
2023-02-11T16:59:09.120Z,98802.28
2023-02-11T17:01:35.605Z,98798.91
2023-02-11T17:04:02.189Z,98800.47
2023-02-11T17:06:29.779Z,98800.59
2023-02-11T17:08:56.316Z,98798.19
2023-02-11T17:11:22.780Z,98796.69
2023-02-11T17:13:49.253Z,98801.03
2023-02-11T17:16:15.768Z,98791.06
2023-02-11T17:18:42.326Z,98791.06
2023-02-11T17:21:08.784Z,98799.91
2023-02-11T17:23:35.340Z,98799.91
2023-02-11T17:26:01.880Z,98798.09
2023-02-11T17:28:28.390Z,98803.00
2023-02-11T17:30:55.026Z,98803.84
2023-02-11T17:33:21.615Z,98798.34
2023-02-11T17:35:51.127Z,98808.19
2023-02-11T17:38:17.839Z,98808.47
2023-02-11T17:40:44.338Z,98811.44
2023-02-11T17:43:11.015Z,98815.78
2023-02-11T17:45:37.581Z,98814.81
2023-02-11T17:48:04.198Z,98815.78
2023-02-11T17:50:30.683Z,98815.66
2023-02-11T17:52:57.206Z,98819.31
2023-02-11T17:55:23.670Z,98816.63
2023-02-11T17:57:50.351Z,98813.53
2023-02-11T18:00:17.785Z,98818.03
2023-02-11T18:02:44.421Z,98823.09
2023-02-11T18:05:13.730Z,98822.13
2023-02-11T18:07:40.195Z,98825.63
2023-02-11T18:10:06.685Z,98833.50
2023-02-11T18:12:33.331Z,98847.13
2023-02-11T18:14:59.812Z,98837.72
2023-02-11T18:17:26.293Z,98842.91
2023-02-11T18:19:52.729Z,98844.75
2023-02-11T18:22:19.223Z,98851.06
2023-02-11T18:24:45.622Z,98842.50
2023-02-11T18:27:12.057Z,98847.97
2023-02-11T18:29:38.460Z,98852.47
2023-02-11T18:32:05.008Z,98861.72
2023-02-11T18:34:31.516Z,98854.00
2023-02-11T18:36:59.006Z,98860.16
2023-02-11T18:39:25.770Z,98868.59
2023-02-11T18:41:52.208Z,98860.59
2023-02-11T18:44:18.615Z,98854.56
2023-02-11T18:46:45.270Z,98863.69
2023-02-11T18:49:11.662Z,98863.00
2023-02-11T18:51:38.102Z,98863.00
2023-02-11T18:54:04.485Z,98863.22
2023-02-11T18:56:30.897Z,98858.91
2023-02-11T18:58:57.318Z,98860.69
2023-02-11T19:01:24.203Z,98867.28
2023-02-11T19:03:50.801Z,98862.38
2023-02-11T19:06:17.218Z,98865.91
2023-02-11T19:08:43.599Z,98875.72
2023-02-11T19:11:10.085Z,98872.06
2023-02-11T19:13:37.474Z,98882.75
2023-02-11T19:16:03.878Z,98884.69
2023-02-11T19:18:30.320Z,98879.63
2023-02-11T19:20:59.550Z,98882.03
2023-02-11T19:23:25.950Z,98893.28
2023-02-11T19:25:52.594Z,98890.63
2023-02-11T19:28:19.253Z,98879.25
2023-02-11T19:30:45.943Z,98880.09
2023-02-11T19:33:12.445Z,98877.56
2023-02-11T19:35:38.858Z,98882.88
2023-02-11T19:38:05.654Z,98883.84
2023-02-11T19:40:32.116Z,98879.06
2023-02-11T19:42:58.568Z,98885.22
2023-02-11T19:45:26.944Z,98888.47
2023-02-11T19:47:53.609Z,98881.00
2023-02-11T19:50:22.039Z,98874.56
2023-02-11T19:52:48.476Z,98877.56
2023-02-11T19:55:17.215Z,98873.03
2023-02-11T19:57:43.695Z,98880.91
2023-02-11T20:00:10.113Z,98880.78
2023-02-11T20:02:36.506Z,98879.09
2023-02-11T20:05:02.945Z,98865.91
2023-02-11T20:07:29.313Z,98864.34
2023-02-11T20:09:55.954Z,98855.63
2023-02-11T20:12:22.386Z,98863.34
2023-02-11T20:14:53.057Z,98862.47
2023-02-11T20:17:19.477Z,98858.66
2023-02-11T20:19:45.879Z,98864.69
2023-02-11T20:22:14.975Z,98869.84
2023-02-11T20:24:41.343Z,98868.63
2023-02-11T20:27:07.747Z,98866.34
2023-02-11T20:29:34.179Z,98869.84
2023-02-11T20:32:00.866Z,98873.66
2023-02-11T20:34:27.359Z,98872.97
2023-02-11T20:36:53.793Z,98862.44
2023-02-11T20:39:20.252Z,98869.75
2023-02-11T20:41:46.782Z,98867.06
2023-02-11T20:44:13.249Z,98876.66
2023-02-11T20:46:39.761Z,98873.25
2023-02-11T20:49:06.192Z,98874.50
2023-02-11T20:51:32.603Z,98874.63
2023-02-11T20:53:58.944Z,98867.03
2023-02-11T20:56:25.397Z,98866.19
2023-02-11T20:58:53.105Z,98867.88
2023-02-11T21:01:19.494Z,98867.44
2023-02-11T21:03:45.938Z,98872.91
2023-02-11T21:06:12.355Z,98862.53
2023-02-11T21:08:38.752Z,98864.47
2023-02-11T21:11:05.221Z,98861.38
2023-02-11T21:13:31.686Z,98857.47
2023-02-11T21:15:58.606Z,98856.38
2023-02-11T21:18:27.367Z,98858.34
2023-02-11T21:20:53.797Z,98864.06
2023-02-11T21:23:20.235Z,98863.22
2023-02-11T21:25:46.663Z,98860.56
2023-02-11T21:28:13.108Z,98866.59
2023-02-11T21:30:39.579Z,98863.34
2023-02-11T21:33:05.984Z,98862.53
2023-02-11T21:35:32.432Z,98863.34
2023-02-11T21:38:00.099Z,98855.50
2023-02-11T21:40:26.480Z,98862.06
2023-02-11T21:42:52.844Z,98862.91
2023-02-11T21:45:19.340Z,98864.88
2023-02-11T21:47:54.012Z,98856.88
2023-02-11T21:50:20.474Z,98856.72
2023-02-11T21:52:48.987Z,98854.19
2023-02-11T21:55:15.385Z,98862.34
2023-02-11T21:57:41.923Z,98861.59
2023-02-11T22:00:08.425Z,98854.59
2023-02-11T22:02:34.881Z,98856.28
2023-02-11T22:05:01.465Z,98847.56
2023-02-11T22:07:27.879Z,98851.22
2023-02-11T22:09:54.266Z,98859.22
2023-02-11T22:12:21.082Z,98862.88
2023-02-11T22:14:47.453Z,98868.22
2023-02-11T22:17:14.404Z,98874.53
2023-02-11T22:19:40.882Z,98866.38
2023-02-11T22:22:07.270Z,98866.94
2023-02-11T22:24:33.816Z,98879.13
2023-02-11T22:27:01.522Z,98878.88
2023-02-11T22:29:27.952Z,98878.59
2023-02-11T22:31:54.510Z,98881.13
2023-02-11T22:34:20.978Z,98881.00
2023-02-11T22:36:47.463Z,98880.03
2023-02-11T22:39:13.889Z,98876.38
2023-02-11T22:41:40.421Z,98881.28
2023-02-11T22:44:12.575Z,98887.44
2023-02-11T22:46:39.026Z,98888.88
2023-02-11T22:49:05.462Z,98887.31
2023-02-11T22:51:33.298Z,98889.97
2023-02-11T22:54:01.791Z,98885.59
2023-02-11T22:56:28.248Z,98891.94
2023-02-11T22:58:54.714Z,98883.22
2023-02-11T23:01:21.365Z,98884.78
2023-02-11T23:03:47.767Z,98887.72
2023-02-11T23:06:14.217Z,98880.13
2023-02-11T23:08:40.820Z,98882.78
2023-02-11T23:11:07.263Z,98879.13
2023-02-11T23:13:33.762Z,98878.56
2023-02-11T23:16:00.450Z,98874.66
2023-02-11T23:18:28.327Z,98868.91
2023-02-11T23:20:54.770Z,98874.25
2023-02-11T23:23:21.381Z,98862.69
2023-02-11T23:25:47.836Z,98865.88
2023-02-11T23:28:14.344Z,98864.06
2023-02-11T23:30:40.765Z,98873.44
2023-02-11T23:33:07.217Z,98868.81
2023-02-11T23:35:33.675Z,98865.38
2023-02-11T23:38:00.072Z,98862.56
2023-02-11T23:40:26.508Z,98861.59
2023-02-11T23:42:52.930Z,98852.31
2023-02-11T23:45:19.415Z,98853.25
2023-02-11T23:47:45.913Z,98851.44
2023-02-11T23:50:12.400Z,98842.78
2023-02-11T23:52:39.017Z,98846.16
2023-02-11T23:55:05.382Z,98839.72
2023-02-11T23:57:31.836Z,98833.56
2023-02-11T23:59:58.215Z,98841.41
